Oak Ridge, Tennessee
Current Conditions -  °F | °C
As of 5:53 AM on Sunday 23 Nov 2014 (Local Time) from KOQT Reporting Station
Overcast Overcast  
Wind Chill:   Ceiling: 5500
Heat Index:   Visibility: 10mi
Dew Point:   Wind: 0mph
Humidity: 71%   Direction: NA
Pressure: 30.08"   Gusts: NA
Location:  36.01°N, 84.25°W
Report Text: KOQT 231053Z AUTO 00000KT 10SM OVC055 07/02 A3008 RMK AO2 SLP190 T00720022
Loading
Personal Weather Stations






























Interactive Weather Map New forecast layout! Learn more

10-Day Weather Forecast

Advertisements
Track Severe Weather on mobile